Time;durP1;ratioP1;P1;durP2;ratioP2;P2;SDS_P1;SDS_P2;PMS_P1;PMS_P2;Temp;Humidity;BMP_temperature;BMP_pressure;BME280_temperature;BME280_humidity;BME280_pressure;Samples;Min_cycle;Max_cycle;Signal;HPM_P1;HPM_P2
2023/07/19 00:01:23;;;;;;;;;;;16.70;99.90;;;;;;5081648;28;20374;-85
2023/07/19 00:03:49;;;;;;;;;;;16.70;99.90;;;;;;5085050;28;20295;-85
2023/07/19 00:06:14;;;;;;;;;;;16.70;99.90;;;;;;5067901;28;19981;-82
2023/07/19 00:08:40;;;;;;;;;;;16.70;99.90;;;;;;5086765;28;19928;-83
2023/07/19 00:11:06;;;;;;;;;;;16.70;99.90;;;;;;5068330;28;19932;-86
2023/07/19 00:13:31;;;;;;;;;;;16.60;99.90;;;;;;5085241;28;19924;-83
2023/07/19 00:15:57;;;;;;;;;;;16.70;99.90;;;;;;5084347;28;19924;-82
2023/07/19 00:18:22;;;;;;;;;;;16.60;99.90;;;;;;5084747;28;19928;-83
2023/07/19 00:20:48;;;;;;;;;;;16.70;99.90;;;;;;5068704;28;20011;-84
2023/07/19 00:23:13;;;;;;;;;;;16.60;99.90;;;;;;5064909;28;19939;-83
2023/07/19 00:25:39;;;;;;;;;;;16.60;99.90;;;;;;5066994;28;20013;-86
2023/07/19 00:28:05;;;;;;;;;;;16.70;99.90;;;;;;5066386;28;19928;-83
2023/07/19 00:30:31;;;;;;;;;;;16.60;99.90;;;;;;5085117;28;19928;-86
2023/07/19 00:32:56;;;;;;;;;;;16.60;99.90;;;;;;5050150;28;19985;-84
2023/07/19 00:35:22;;;;;;;;;;;16.70;99.90;;;;;;5086008;28;20370;-83
2023/07/19 00:37:48;;;;;;;;;;;16.70;99.90;;;;;;5081894;28;20015;-83
2023/07/19 00:40:13;;;;;;;;;;;16.70;99.90;;;;;;5050989;28;20335;-86
2023/07/19 00:42:39;;;;;;;;;;;16.70;99.90;;;;;;5066979;28;19924;-83
2023/07/19 00:45:05;;;;;;;;;;;16.70;99.90;;;;;;5066702;28;20473;-83
2023/07/19 00:47:31;;;;;;;;;;;16.70;99.90;;;;;;5082275;28;19936;-84
2023/07/19 00:49:57;;;;;;;;;;;16.80;99.90;;;;;;5085227;28;19998;-84
2023/07/19 00:52:22;;;;;;;;;;;16.80;99.90;;;;;;5084972;28;19978;-86
2023/07/19 00:54:48;;;;;;;;;;;16.70;99.90;;;;;;5063265;28;20366;-84
2023/07/19 00:57:14;;;;;;;;;;;16.80;99.90;;;;;;5083905;28;20374;-83
2023/07/19 00:59:40;;;;;;;;;;;16.80;99.90;;;;;;5066064;28;19973;-84
2023/07/19 01:02:06;;;;;;;;;;;16.80;99.90;;;;;;5067345;28;19976;-83
2023/07/19 01:04:32;;;;;;;;;;;16.80;99.90;;;;;;5088640;28;20849;-86
2023/07/19 01:06:57;;;;;;;;;;;16.80;99.90;;;;;;5070170;28;19938;-84
2023/07/19 01:09:23;;;;;;;;;;;16.80;99.90;;;;;;5053677;28;20259;-85
2023/07/19 01:11:49;;;;;;;;;;;16.80;99.90;;;;;;5088945;28;19981;-83
2023/07/19 01:14:15;;;;;;;;;;;16.80;99.90;;;;;;5088219;28;19932;-83
2023/07/19 01:16:40;;;;;;;;;;;16.80;99.90;;;;;;5087785;28;20019;-83
2023/07/19 01:19:08;;;;;;;;;;;16.80;99.90;;;;;;5085532;28;19932;-87
2023/07/19 01:21:33;;;;;;;;;;;16.80;99.90;;;;;;5087619;28;19932;-83
2023/07/19 01:23:59;;;;;;;;;;;16.80;99.90;;;;;;5069912;28;19924;-83
2023/07/19 01:26:24;;;;;;;;;;;16.80;99.90;;;;;;5088175;28;19924;-85
2023/07/19 01:28:50;;;;;;;;;;;16.80;99.90;;;;;;5087210;28;19994;-84
2023/07/19 01:31:16;;;;;;;;;;;16.80;99.90;;;;;;5083910;28;19932;-86
2023/07/19 01:33:41;;;;;;;;;;;16.90;99.90;;;;;;5067160;28;19977;-86
2023/07/19 01:36:07;;;;;;;;;;;16.90;99.90;;;;;;5081541;28;20043;-84
2023/07/19 01:38:33;;;;;;;;;;;16.80;99.90;;;;;;5065628;28;19932;-84
2023/07/19 01:40:58;;;;;;;;;;;16.90;99.90;;;;;;5083788;28;20022;-83
2023/07/19 01:43:24;;;;;;;;;;;16.90;99.90;;;;;;5080331;28;20412;-84
2023/07/19 01:45:49;;;;;;;;;;;16.80;99.90;;;;;;5082380;28;19950;-86
2023/07/19 01:48:16;;;;;;;;;;;16.80;99.90;;;;;;5082275;28;20359;-83
2023/07/19 01:50:45;;;;;;;;;;;16.80;99.90;;;;;;5081163;28;20290;-83
2023/07/19 01:53:10;;;;;;;;;;;16.70;99.90;;;;;;5062684;28;19928;-86
2023/07/19 01:55:36;;;;;;;;;;;16.70;99.90;;;;;;5067075;28;19939;-86
2023/07/19 01:58:01;;;;;;;;;;;16.70;99.90;;;;;;5085458;28;19954;-84
2023/07/19 02:00:27;;;;;;;;;;;16.70;99.90;;;;;;5085773;28;19977;-85
2023/07/19 02:02:52;;;;;;;;;;;16.70;99.90;;;;;;5067430;28;19924;-84
2023/07/19 02:05:18;;;;;;;;;;;16.60;99.90;;;;;;5084353;28;19924;-83
2023/07/19 02:07:44;;;;;;;;;;;16.70;99.90;;;;;;5067885;28;19932;-83
2023/07/19 02:10:10;;;;;;;;;;;16.60;99.90;;;;;;5085430;28;20015;-84
2023/07/19 02:12:36;;;;;;;;;;;16.60;99.90;;;;;;5066178;28;20023;-83
2023/07/19 02:15:01;;;;;;;;;;;16.60;99.90;;;;;;5084573;28;19932;-86
2023/07/19 02:17:27;;;;;;;;;;;16.60;99.90;;;;;;5082997;28;19990;-84
2023/07/19 02:19:52;;;;;;;;;;;16.60;99.90;;;;;;5063022;28;20539;-83
2023/07/19 02:22:18;;;;;;;;;;;16.60;99.90;;;;;;5084343;28;19939;-87
2023/07/19 02:24:44;;;;;;;;;;;16.60;99.90;;;;;;5080102;28;19932;-84
2023/07/19 02:27:09;;;;;;;;;;;16.60;99.90;;;;;;5082232;28;19928;-83
2023/07/19 02:29:35;;;;;;;;;;;16.60;99.90;;;;;;5047502;28;19928;-83
2023/07/19 02:32:00;;;;;;;;;;;16.60;99.90;;;;;;5083604;28;20370;-83
2023/07/19 02:34:26;;;;;;;;;;;16.60;99.90;;;;;;5063261;28;19928;-83
2023/07/19 02:36:51;;;;;;;;;;;16.60;99.90;;;;;;5081860;28;19940;-86
2023/07/19 02:39:17;;;;;;;;;;;16.60;99.90;;;;;;5065656;28;20297;-83
2023/07/19 02:41:43;;;;;;;;;;;16.60;99.90;;;;;;5081758;28;19935;-83
2023/07/19 02:44:08;;;;;;;;;;;16.60;99.90;;;;;;5079717;28;19938;-83
2023/07/19 02:46:34;;;;;;;;;;;16.50;99.90;;;;;;5084258;28;20070;-83
2023/07/19 02:49:00;;;;;;;;;;;16.50;99.90;;;;;;5082360;28;19932;-86
2023/07/19 02:51:25;;;;;;;;;;;16.50;99.90;;;;;;5081519;28;19939;-83
2023/07/19 02:53:51;;;;;;;;;;;16.50;99.90;;;;;;5064119;28;19975;-83
2023/07/19 02:56:16;;;;;;;;;;;16.50;99.90;;;;;;5061286;28;20082;-83
2023/07/19 02:58:42;;;;;;;;;;;16.50;99.90;;;;;;5082067;28;20332;-83
2023/07/19 03:01:08;;;;;;;;;;;16.50;99.90;;;;;;5064007;28;20057;-85
2023/07/19 03:03:33;;;;;;;;;;;16.50;99.90;;;;;;5063789;28;19932;-86
2023/07/19 03:06:02;;;;;;;;;;;16.50;99.90;;;;;;5074825;28;19928;-83
2023/07/19 03:08:27;;;;;;;;;;;16.40;99.90;;;;;;5062457;28;20746;-85
2023/07/19 03:10:56;;;;;;;;;;;16.40;99.90;;;;;;5082598;28;19932;-83
2023/07/19 03:13:21;;;;;;;;;;;16.40;99.90;;;;;;5086593;28;20032;-87
2023/07/19 03:15:47;;;;;;;;;;;16.40;99.90;;;;;;5085784;28;20003;-83
2023/07/19 03:18:13;;;;;;;;;;;16.40;99.90;;;;;;5084410;28;19970;-83
2023/07/19 03:20:38;;;;;;;;;;;16.40;99.90;;;;;;5085804;28;19924;-84
2023/07/19 03:23:04;;;;;;;;;;;16.40;99.90;;;;;;5082008;28;19929;-82
2023/07/19 03:25:30;;;;;;;;;;;16.40;99.90;;;;;;5080801;28;19979;-86
2023/07/19 03:27:55;;;;;;;;;;;16.40;99.90;;;;;;5077437;28;19939;-85
2023/07/19 03:30:21;;;;;;;;;;;16.40;99.90;;;;;;5082820;28;19947;-83
2023/07/19 03:32:47;;;;;;;;;;;16.40;99.90;;;;;;5064275;28;19924;-83
2023/07/19 03:35:13;;;;;;;;;;;16.40;99.90;;;;;;5081533;28;19931;-84
2023/07/19 03:37:43;;;;;;;;;;;16.50;99.90;;;;;;5080132;28;19928;-84
2023/07/19 03:40:10;;;;;;;;;;;16.50;99.90;;;;;;5061552;28;19993;-84
2023/07/19 03:42:35;;;;;;;;;;;16.50;99.90;;;;;;5081610;28;19959;-84
2023/07/19 03:45:01;;;;;;;;;;;16.40;99.90;;;;;;5082543;28;19997;-84
2023/07/19 03:47:27;;;;;;;;;;;16.40;99.90;;;;;;5079588;28;19932;-84
2023/07/19 03:49:52;;;;;;;;;;;16.40;99.90;;;;;;5080007;28;19939;-85
2023/07/19 03:52:18;;;;;;;;;;;16.30;99.90;;;;;;5066304;28;20392;-87
2023/07/19 03:54:43;;;;;;;;;;;16.40;99.90;;;;;;5084264;28;20408;-86
2023/07/19 03:57:09;;;;;;;;;;;16.40;99.90;;;;;;5051732;28;19931;-85
2023/07/19 03:59:34;;;;;;;;;;;16.40;99.90;;;;;;5082994;28;19930;-84
2023/07/19 04:02:00;;;;;;;;;;;16.40;99.90;;;;;;5086875;28;20030;-85
2023/07/19 04:04:25;;;;;;;;;;;16.30;99.90;;;;;;5086941;28;19982;-85
2023/07/19 04:06:51;;;;;;;;;;;16.30;99.90;;;;;;5088584;28;19930;-84
2023/07/19 04:09:17;;;;;;;;;;;16.30;99.90;;;;;;5086642;28;19924;-84
2023/07/19 04:11:43;;;;;;;;;;;16.30;99.90;;;;;;5089629;28;20022;-83
2023/07/19 04:14:08;;;;;;;;;;;16.30;99.90;;;;;;5072130;28;20461;-83
2023/07/19 04:16:34;;;;;;;;;;;16.30;99.90;;;;;;5065414;28;19931;-84
2023/07/19 04:18:59;;;;;;;;;;;16.20;99.90;;;;;;5072186;28;19932;-83
2023/07/19 04:21:25;;;;;;;;;;;16.30;99.90;;;;;;5089693;28;19924;-83
2023/07/19 04:23:50;;;;;;;;;;;16.20;99.90;;;;;;5086222;28;19985;-83
2023/07/19 04:26:16;;;;;;;;;;;16.20;99.90;;;;;;5068148;28;19928;-83
2023/07/19 04:28:42;;;;;;;;;;;16.20;99.90;;;;;;5068528;28;19932;-85
2023/07/19 04:31:07;;;;;;;;;;;16.20;99.90;;;;;;5046340;28;19924;-84
2023/07/19 04:33:33;;;;;;;;;;;16.20;99.90;;;;;;5083715;28;19924;-84
2023/07/19 04:35:59;;;;;;;;;;;16.20;99.90;;;;;;5067367;28;19928;-84
2023/07/19 04:38:25;;;;;;;;;;;16.20;99.90;;;;;;5066984;28;19924;-84
2023/07/19 04:40:51;;;;;;;;;;;16.20;99.90;;;;;;5084235;28;19932;-85
2023/07/19 04:43:16;;;;;;;;;;;16.20;99.90;;;;;;5080455;28;20271;-85
2023/07/19 04:45:43;;;;;;;;;;;16.20;99.90;;;;;;5083678;28;19935;-83
2023/07/19 04:48:09;;;;;;;;;;;16.20;99.90;;;;;;5067165;28;20050;-85
2023/07/19 04:50:34;;;;;;;;;;;16.20;99.90;;;;;;5085107;28;19978;-83
2023/07/19 04:53:00;;;;;;;;;;;16.20;99.90;;;;;;5064101;28;19924;-83
2023/07/19 04:55:25;;;;;;;;;;;16.30;99.90;;;;;;5083389;28;20038;-85
2023/07/19 04:57:51;;;;;;;;;;;16.30;99.90;;;;;;5066749;28;19924;-85
2023/07/19 05:00:17;;;;;;;;;;;16.30;99.90;;;;;;5085729;28;20329;-84
2023/07/19 05:02:43;;;;;;;;;;;16.30;99.90;;;;;;5083664;28;19939;-83
2023/07/19 05:05:09;;;;;;;;;;;16.30;99.90;;;;;;5087044;28;21009;-83
2023/07/19 05:07:35;;;;;;;;;;;16.30;99.90;;;;;;5085217;28;19936;-84
2023/07/19 05:10:02;;;;;;;;;;;16.20;99.90;;;;;;5085614;28;19924;-83
2023/07/19 05:12:28;;;;;;;;;;;16.20;99.90;;;;;;5068212;28;20491;-84
2023/07/19 05:14:54;;;;;;;;;;;16.20;99.90;;;;;;5068977;28;20024;-84
2023/07/19 05:17:19;;;;;;;;;;;16.20;99.90;;;;;;5065638;28;20027;-84
2023/07/19 05:19:45;;;;;;;;;;;16.20;99.90;;;;;;5088339;28;19928;-86
2023/07/19 05:22:11;;;;;;;;;;;16.20;99.90;;;;;;5082179;28;19938;-85
2023/07/19 05:24:36;;;;;;;;;;;16.30;99.90;;;;;;5070246;28;19927;-84
2023/07/19 05:27:02;;;;;;;;;;;16.20;99.90;;;;;;5087515;28;20315;-84
2023/07/19 05:29:28;;;;;;;;;;;16.30;99.90;;;;;;5066994;28;19982;-84
2023/07/19 05:31:54;;;;;;;;;;;16.30;99.90;;;;;;5082983;28;20022;-86
2023/07/19 05:34:19;;;;;;;;;;;16.30;99.90;;;;;;5084754;28;19928;-84
2023/07/19 05:36:45;;;;;;;;;;;16.30;99.90;;;;;;5068392;28;20011;-84
2023/07/19 05:39:10;;;;;;;;;;;16.30;99.90;;;;;;5081760;28;19936;-83
2023/07/19 05:41:36;;;;;;;;;;;16.20;99.90;;;;;;5082631;28;19928;-84
2023/07/19 05:44:02;;;;;;;;;;;16.20;99.90;;;;;;5045765;28;19947;-84
2023/07/19 05:46:27;;;;;;;;;;;16.20;99.90;;;;;;5081107;28;19936;-83
2023/07/19 05:48:53;;;;;;;;;;;16.30;99.90;;;;;;5063415;28;19932;-83
2023/07/19 05:51:19;;;;;;;;;;;16.30;99.90;;;;;;5080819;28;19928;-85
2023/07/19 05:53:44;;;;;;;;;;;16.30;99.90;;;;;;5062809;28;19932;-83
2023/07/19 05:56:10;;;;;;;;;;;16.30;99.90;;;;;;5045755;28;19924;-85
2023/07/19 05:58:36;;;;;;;;;;;16.30;99.90;;;;;;5082027;28;20011;-87
2023/07/19 06:01:03;;;;;;;;;;;16.30;99.90;;;;;;5078117;28;19924;-83
2023/07/19 06:03:29;;;;;;;;;;;16.30;99.90;;;;;;5048382;28;19924;-83
2023/07/19 06:05:55;;;;;;;;;;;16.40;99.90;;;;;;5082489;28;19946;-84
2023/07/19 06:08:20;;;;;;;;;;;16.40;99.90;;;;;;5080342;28;19924;-84
2023/07/19 06:10:46;;;;;;;;;;;16.50;99.90;;;;;;5081096;28;19928;-87
2023/07/19 06:13:14;;;;;;;;;;;16.60;99.90;;;;;;5081620;28;19938;-85
2023/07/19 06:15:40;;;;;;;;;;;16.70;99.90;;;;;;5060103;28;19928;-83
2023/07/19 06:18:06;;;;;;;;;;;16.80;99.90;;;;;;5082175;28;19949;-83
2023/07/19 06:20:31;;;;;;;;;;;16.90;99.90;;;;;;5081938;28;22007;-85
2023/07/19 06:22:57;;;;;;;;;;;16.90;99.90;;;;;;5083295;28;19977;-83
2023/07/19 06:25:22;;;;;;;;;;;17.00;99.90;;;;;;5059716;28;19937;-83
2023/07/19 06:27:48;;;;;;;;;;;17.00;99.90;;;;;;5047228;28;19932;-84
2023/07/19 06:30:14;;;;;;;;;;;17.10;99.90;;;;;;5056548;28;19970;-85
2023/07/19 06:32:39;;;;;;;;;;;17.20;99.90;;;;;;5080114;28;19928;-84
2023/07/19 06:35:05;;;;;;;;;;;17.20;99.90;;;;;;5063362;28;19928;-83
2023/07/19 06:37:31;;;;;;;;;;;17.30;99.90;;;;;;5063199;28;19956;-85
2023/07/19 06:39:57;;;;;;;;;;;17.40;99.90;;;;;;5050323;28;19981;-86
2023/07/19 06:42:22;;;;;;;;;;;17.40;99.90;;;;;;5047557;28;19925;-86
2023/07/19 06:44:48;;;;;;;;;;;17.50;99.90;;;;;;5082143;28;19928;-85
2023/07/19 06:47:14;;;;;;;;;;;17.50;99.90;;;;;;5060718;28;20104;-84
2023/07/19 06:49:40;;;;;;;;;;;17.50;99.90;;;;;;5080041;28;19924;-83
2023/07/19 06:52:06;;;;;;;;;;;17.60;99.90;;;;;;5081977;28;19935;-85
2023/07/19 06:54:32;;;;;;;;;;;17.50;99.90;;;;;;5063468;28;19928;-82
2023/07/19 06:56:58;;;;;;;;;;;17.60;99.90;;;;;;5080274;28;19928;-83
2023/07/19 06:59:23;;;;;;;;;;;17.60;99.90;;;;;;5079398;28;21643;-87
2023/07/19 07:01:49;;;;;;;;;;;17.60;99.90;;;;;;5080967;28;19924;-83
2023/07/19 07:04:15;;;;;;;;;;;17.70;99.90;;;;;;5047312;28;19977;-83
2023/07/19 07:06:40;;;;;;;;;;;17.80;99.90;;;;;;5061718;28;20409;-86
2023/07/19 07:09:06;;;;;;;;;;;17.80;99.90;;;;;;5080778;28;20043;-83
2023/07/19 07:11:31;;;;;;;;;;;17.90;99.90;;;;;;5082882;28;19939;-86
2023/07/19 07:13:57;;;;;;;;;;;18.00;99.90;;;;;;5066952;28;19924;-82
2023/07/19 07:16:23;;;;;;;;;;;18.10;99.90;;;;;;5072503;28;19928;-83
2023/07/19 07:18:48;;;;;;;;;;;18.20;99.90;;;;;;5090953;28;20295;-82
2023/07/19 07:21:15;;;;;;;;;;;18.30;99.90;;;;;;5071486;28;19932;-83
2023/07/19 07:23:40;;;;;;;;;;;18.40;99.90;;;;;;5090116;28;20032;-82
2023/07/19 07:26:06;;;;;;;;;;;18.50;99.90;;;;;;5073204;28;20003;-82
2023/07/19 07:28:31;;;;;;;;;;;18.60;99.90;;;;;;5089799;28;19931;-85
2023/07/19 07:30:57;;;;;;;;;;;18.60;99.90;;;;;;5086239;28;19946;-85
2023/07/19 07:33:22;;;;;;;;;;;18.60;99.90;;;;;;5089646;28;20290;-83
2023/07/19 07:35:48;;;;;;;;;;;18.60;99.90;;;;;;5092510;28;20117;-82
2023/07/19 07:38:14;;;;;;;;;;;18.70;99.90;;;;;;5072260;28;19938;-85
2023/07/19 07:40:39;;;;;;;;;;;18.70;99.90;;;;;;5087657;28;19927;-86
2023/07/19 07:43:06;;;;;;;;;;;18.80;99.90;;;;;;5067744;28;19924;-85
2023/07/19 07:45:31;;;;;;;;;;;18.80;99.90;;;;;;5067528;28;19924;-82
2023/07/19 07:47:57;;;;;;;;;;;18.80;99.90;;;;;;5088031;28;19938;-86
2023/07/19 07:50:24;;;;;;;;;;;18.90;99.90;;;;;;5088112;28;19928;-82
2023/07/19 07:52:49;;;;;;;;;;;18.80;99.90;;;;;;5087363;28;19939;-87
2023/07/19 07:55:15;;;;;;;;;;;18.80;99.90;;;;;;5088591;28;19925;-84
2023/07/19 07:57:41;;;;;;;;;;;18.90;99.90;;;;;;5067599;28;19932;-86
2023/07/19 08:00:06;;;;;;;;;;;18.90;99.90;;;;;;5087879;28;20023;-87
2023/07/19 08:02:32;;;;;;;;;;;18.90;99.90;;;;;;5072557;28;20692;-83
2023/07/19 08:04:58;;;;;;;;;;;18.90;99.90;;;;;;5067832;28;19924;-88
2023/07/19 08:07:25;;;;;;;;;;;18.90;99.90;;;;;;5067216;28;19928;-86
2023/07/19 08:09:52;;;;;;;;;;;19.00;99.90;;;;;;5087398;28;19939;-87
2023/07/19 08:12:20;;;;;;;;;;;19.20;99.90;;;;;;5087651;28;20299;-86
2023/07/19 08:14:46;;;;;;;;;;;19.30;99.90;;;;;;5093126;28;19924;-84
2023/07/19 08:17:11;;;;;;;;;;;19.40;99.90;;;;;;5089525;28;20271;-87
2023/07/19 08:19:37;;;;;;;;;;;19.50;99.90;;;;;;5093887;28;19931;-82
2023/07/19 08:22:03;;;;;;;;;;;19.60;99.90;;;;;;5093946;28;19925;-83
2023/07/19 08:24:29;;;;;;;;;;;19.60;99.90;;;;;;5053781;28;19932;-83
2023/07/19 08:26:54;;;;;;;;;;;19.60;99.90;;;;;;5093304;28;19924;-87
2023/07/19 08:29:20;;;;;;;;;;;19.60;99.90;;;;;;5087217;28;20366;-83
2023/07/19 08:31:45;;;;;;;;;;;19.60;99.90;;;;;;5087303;28;19924;-87
2023/07/19 08:34:11;;;;;;;;;;;19.60;99.90;;;;;;5070045;28;20642;-83
2023/07/19 08:36:37;;;;;;;;;;;19.70;99.90;;;;;;5066597;28;19998;-87
2023/07/19 08:39:02;;;;;;;;;;;19.70;99.90;;;;;;5085610;28;19992;-83
2023/07/19 08:41:29;;;;;;;;;;;19.80;99.90;;;;;;5086651;28;20378;-83
2023/07/19 08:43:55;;;;;;;;;;;20.10;99.90;;;;;;5069646;28;20374;-83
2023/07/19 08:46:22;;;;;;;;;;;20.20;99.90;;;;;;5087278;28;19931;-82
2023/07/19 08:48:47;;;;;;;;;;;20.40;99.90;;;;;;5085557;28;19924;-83
2023/07/19 08:51:14;;;;;;;;;;;20.60;99.90;;;;;;5085838;28;19947;-84
2023/07/19 08:53:40;;;;;;;;;;;20.80;99.90;;;;;;5067126;28;20096;-85
2023/07/19 08:56:06;;;;;;;;;;;20.80;99.90;;;;;;5065775;28;19931;-84
2023/07/19 08:58:36;;;;;;;;;;;20.90;99.90;;;;;;5085745;28;19928;-88
2023/07/19 09:01:02;;;;;;;;;;;20.90;99.90;;;;;;5086743;28;19946;-88
2023/07/19 09:03:27;;;;;;;;;;;20.90;99.90;;;;;;5087736;28;20358;-85
2023/07/19 09:05:53;;;;;;;;;;;21.00;99.90;;;;;;5087415;28;20371;-84
2023/07/19 09:08:19;;;;;;;;;;;20.90;99.90;;;;;;5084578;28;19924;-84
2023/07/19 09:10:45;;;;;;;;;;;20.90;99.90;;;;;;5084264;28;20026;-84
2023/07/19 09:13:11;;;;;;;;;;;20.90;99.90;;;;;;5085389;28;19932;-83
2023/07/19 09:15:38;;;;;;;;;;;20.90;99.90;;;;;;5065081;28;19932;-82
2023/07/19 09:18:05;;;;;;;;;;;20.90;99.90;;;;;;5066746;28;19970;-83
2023/07/19 09:20:33;;;;;;;;;;;20.80;99.90;;;;;;5052890;28;19924;-84
2023/07/19 09:22:58;;;;;;;;;;;20.80;99.90;;;;;;5086225;28;20254;-87
2023/07/19 09:25:24;;;;;;;;;;;20.80;99.90;;;;;;5086087;28;20535;-84
2023/07/19 09:27:51;;;;;;;;;;;20.70;99.90;;;;;;5068137;28;19927;-86
2023/07/19 09:30:17;;;;;;;;;;;20.70;99.90;;;;;;5067247;28;19931;-86
2023/07/19 09:32:42;;;;;;;;;;;20.80;99.90;;;;;;5086007;28;19924;-84
2023/07/19 09:35:08;;;;;;;;;;;20.80;99.90;;;;;;5086703;28;20401;-85
2023/07/19 09:37:34;;;;;;;;;;;21.00;99.90;;;;;;5085139;28;19932;-84
2023/07/19 09:40:01;;;;;;;;;;;21.30;99.90;;;;;;5086161;28;19931;-84
2023/07/19 09:42:28;;;;;;;;;;;21.60;99.90;;;;;;5066511;28;19967;-83
2023/07/19 09:44:54;;;;;;;;;;;22.10;99.90;;;;;;5085348;28;20085;-85
2023/07/19 09:47:22;;;;;;;;;;;22.60;99.90;;;;;;5065793;28;20390;-84
2023/07/19 09:49:48;;;;;;;;;;;22.60;99.90;;;;;;5083430;28;19947;-84
2023/07/19 09:52:16;;;;;;;;;;;22.60;99.90;;;;;;5085899;28;19997;-84
2023/07/19 09:54:42;;;;;;;;;;;22.50;99.90;;;;;;5087030;28;19928;-90
2023/07/19 09:57:08;;;;;;;;;;;22.50;99.90;;;;;;5087210;28;19979;-84
2023/07/19 09:59:36;;;;;;;;;;;22.40;99.90;;;;;;5085725;28;19972;-83
2023/07/19 10:02:02;;;;;;;;;;;22.30;99.90;;;;;;5084959;28;19940;-87
2023/07/19 10:04:28;;;;;;;;;;;22.30;99.90;;;;;;5085639;28;19928;-84
2023/07/19 10:07:07;;;;;;;;;;;22.20;99.90;;;;;;5084520;28;20025;-84
2023/07/19 10:09:43;;;;;;;;;;;22.50;99.90;;;;;;5069320;28;20367;-85
2023/07/19 10:12:21;;;;;;;;;;;22.70;99.90;;;;;;5066862;28;19924;-86
2023/07/19 10:14:59;;;;;;;;;;;22.80;99.90;;;;;;5064292;28;19967;-85
2023/07/19 10:17:25;;;;;;;;;;;22.90;99.90;;;;;;5062171;28;19935;-83
2023/07/19 10:19:56;;;;;;;;;;;23.00;99.90;;;;;;5068038;28;19924;-84
2023/07/19 10:22:42;;;;;;;;;;;23.00;99.90;;;;;;5084137;28;19975;-84
2023/07/19 10:25:09;;;;;;;;;;;23.30;99.90;;;;;;5086719;28;19946;-82
2023/07/19 10:27:35;;;;;;;;;;;23.80;99.90;;;;;;5087051;28;20034;-84
2023/07/19 10:30:05;;;;;;;;;;;24.20;99.90;;;;;;5066601;28;20354;-87
2023/07/19 10:32:30;;;;;;;;;;;24.20;99.90;;;;;;5083915;28;19989;-86
2023/07/19 10:34:56;;;;;;;;;;;24.20;99.90;;;;;;5085392;28;19971;-83
2023/07/19 10:37:22;;;;;;;;;;;24.00;99.90;;;;;;5064091;28;20016;-86
2023/07/19 10:39:48;;;;;;;;;;;23.80;99.90;;;;;;5068357;28;20296;-83
2023/07/19 10:42:14;;;;;;;;;;;23.70;99.90;;;;;;5083685;28;19939;-83
2023/07/19 10:44:40;;;;;;;;;;;23.70;99.90;;;;;;5073837;28;20407;-81
2023/07/19 10:47:06;;;;;;;;;;;23.60;99.90;;;;;;5076423;28;19928;-88
2023/07/19 10:49:31;;;;;;;;;;;23.60;99.90;;;;;;5093859;28;20346;-84
2023/07/19 10:51:58;;;;;;;;;;;23.50;99.90;;;;;;5088205;28;20019;-84
2023/07/19 10:54:24;;;;;;;;;;;23.30;99.90;;;;;;5068738;28;19931;-81
2023/07/19 10:56:51;;;;;;;;;;;23.00;99.90;;;;;;5084620;28;20350;-82
2023/07/19 10:59:17;;;;;;;;;;;22.80;99.90;;;;;;5088575;28;19982;-82
2023/07/19 11:01:43;;;;;;;;;;;22.70;99.90;;;;;;5085225;28;19924;-83
2023/07/19 11:04:09;;;;;;;;;;;22.60;99.90;;;;;;5069246;28;19974;-85
2023/07/19 11:06:35;;;;;;;;;;;22.80;99.90;;;;;;5065121;28;19932;-88
2023/07/19 11:09:08;;;;;;;;;;;23.00;99.90;;;;;;5084157;28;19935;-83
2023/07/19 11:11:35;;;;;;;;;;;23.00;99.90;;;;;;5051842;28;20290;-84
2023/07/19 11:14:01;;;;;;;;;;;23.00;99.90;;;;;;5090165;28;20333;-84
2023/07/19 11:16:28;;;;;;;;;;;23.10;99.90;;;;;;5069390;28;19940;-83
2023/07/19 11:18:53;;;;;;;;;;;23.20;99.90;;;;;;5051828;28;19975;-83
2023/07/19 11:21:26;;;;;;;;;;;23.40;99.90;;;;;;5082907;28;19975;-85
2023/07/19 11:23:52;;;;;;;;;;;23.60;99.90;;;;;;5084892;28;19932;-84
2023/07/19 11:26:18;;;;;;;;;;;23.60;99.90;;;;;;5084036;28;19935;-84
2023/07/19 11:28:47;;;;;;;;;;;23.50;99.90;;;;;;5084103;28;19932;-83
2023/07/19 11:31:32;;;;;;;;;;;23.50;99.90;;;;;;5084785;28;19924;-83
2023/07/19 11:33:59;;;;;;;;;;;23.60;99.90;;;;;;5078447;28;19969;-87
2023/07/19 11:36:25;;;;;;;;;;;23.60;99.90;;;;;;5052775;28;19928;-85
2023/07/19 11:38:51;;;;;;;;;;;23.70;99.90;;;;;;5080948;28;19939;-87
2023/07/19 11:41:17;;;;;;;;;;;23.60;99.90;;;;;;5082900;28;19924;-85
2023/07/19 11:43:45;;;;;;;;;;;23.60;99.90;;;;;;5061454;28;19924;-86
2023/07/19 11:46:13;;;;;;;;;;;23.40;99.90;;;;;;5069598;28;20362;-86
2023/07/19 11:48:39;;;;;;;;;;;23.20;99.90;;;;;;5089110;28;19973;-85
2023/07/19 11:51:05;;;;;;;;;;;23.10;99.90;;;;;;5091061;28;20243;-85
2023/07/19 11:53:30;;;;;;;;;;;22.90;99.90;;;;;;5068330;28;20408;-85
2023/07/19 11:55:56;;;;;;;;;;;22.80;99.90;;;;;;5063978;28;19971;-87
2023/07/19 11:58:21;;;;;;;;;;;22.70;99.90;;;;;;5090103;28;19928;-88
2023/07/19 12:00:47;;;;;;;;;;;22.60;99.90;;;;;;5064107;28;20008;-84
2023/07/19 12:03:14;;;;;;;;;;;22.40;99.90;;;;;;5085866;28;19931;-84
2023/07/19 12:05:39;;;;;;;;;;;22.20;99.90;;;;;;5073179;28;19928;-84
2023/07/19 12:08:06;;;;;;;;;;;22.10;99.90;;;;;;5091103;28;19977;-84
2023/07/19 12:10:32;;;;;;;;;;;21.90;99.90;;;;;;5071645;28;20340;-85
2023/07/19 12:12:57;;;;;;;;;;;21.80;99.90;;;;;;5092941;28;19928;-85
2023/07/19 12:15:23;;;;;;;;;;;21.80;99.90;;;;;;5077389;28;19924;-85
2023/07/19 12:17:49;;;;;;;;;;;21.70;99.90;;;;;;5094646;28;19931;-85
2023/07/19 12:20:15;;;;;;;;;;;21.60;99.90;;;;;;5094199;28;20061;-85
2023/07/19 12:22:42;;;;;;;;;;;21.60;99.90;;;;;;5095433;28;19997;-86
2023/07/19 12:25:08;;;;;;;;;;;21.70;99.90;;;;;;5077629;28;20016;-85
2023/07/19 12:27:33;;;;;;;;;;;21.60;99.90;;;;;;5077427;28;20417;-85
2023/07/19 12:29:59;;;;;;;;;;;21.50;99.90;;;;;;5074985;28;19924;-85
2023/07/19 12:32:25;;;;;;;;;;;21.50;99.90;;;;;;5092995;28;19938;-86
2023/07/19 12:34:51;;;;;;;;;;;21.50;99.90;;;;;;5076359;28;20011;-85
2023/07/19 12:37:16;;;;;;;;;;;21.50;99.90;;;;;;5094852;28;20083;-85
2023/07/19 12:39:42;;;;;;;;;;;21.60;99.90;;;;;;5076345;28;19973;-87
2023/07/19 12:42:08;;;;;;;;;;;21.70;99.90;;;;;;5075580;28;19924;-85
2023/07/19 12:44:35;;;;;;;;;;;21.70;99.90;;;;;;5093658;28;19932;-86
2023/07/19 12:47:01;;;;;;;;;;;21.80;99.90;;;;;;5094276;28;19981;-84
2023/07/19 12:49:27;;;;;;;;;;;21.80;99.90;;;;;;5094257;28;19928;-84
2023/07/19 12:51:52;;;;;;;;;;;21.90;99.90;;;;;;5094210;28;19930;-87
2023/07/19 12:54:18;;;;;;;;;;;21.90;99.90;;;;;;5075431;28;19932;-86
2023/07/19 12:56:44;;;;;;;;;;;21.80;99.90;;;;;;5093530;28;19928;-85
2023/07/19 12:59:12;;;;;;;;;;;21.80;99.90;;;;;;5094024;28;19931;-84
2023/07/19 13:01:37;;;;;;;;;;;21.80;99.90;;;;;;5094103;28;19924;-83
2023/07/19 13:04:03;;;;;;;;;;;21.80;99.90;;;;;;5092788;28;20003;-85
2023/07/19 13:06:29;;;;;;;;;;;21.70;99.90;;;;;;5073124;28;20059;-86
2023/07/19 13:08:56;;;;;;;;;;;21.90;99.90;;;;;;5074606;28;19928;-85
2023/07/19 13:11:22;;;;;;;;;;;21.90;99.90;;;;;;5092356;28;19924;-85
2023/07/19 13:13:47;;;;;;;;;;;22.00;99.90;;;;;;5093854;28;20546;-85
2023/07/19 13:16:13;;;;;;;;;;;22.10;99.90;;;;;;5094575;28;20404;-84
2023/07/19 13:18:39;;;;;;;;;;;22.20;99.90;;;;;;5093898;28;19924;-85
2023/07/19 13:21:05;;;;;;;;;;;22.30;99.90;;;;;;5071791;28;20324;-84
2023/07/19 13:23:30;;;;;;;;;;;22.40;99.90;;;;;;5093205;28;19931;-84
2023/07/19 13:25:56;;;;;;;;;;;22.40;99.90;;;;;;5093364;28;19978;-85
2023/07/19 13:28:21;;;;;;;;;;;22.30;99.90;;;;;;5093417;28;19934;-86
2023/07/19 13:30:48;;;;;;;;;;;22.30;99.90;;;;;;5093384;28;19924;-85
2023/07/19 13:33:14;;;;;;;;;;;22.20;99.90;;;;;;5092834;28;19970;-84
2023/07/19 13:35:40;;;;;;;;;;;22.20;99.90;;;;;;5093517;28;19967;-85
2023/07/19 13:38:06;;;;;;;;;;;22.20;99.90;;;;;;5093293;28;19931;-85
2023/07/19 13:40:32;;;;;;;;;;;22.20;99.90;;;;;;5075111;28;20011;-86
2023/07/19 13:42:58;;;;;;;;;;;22.10;99.90;;;;;;5087760;28;20016;-86
2023/07/19 13:45:23;;;;;;;;;;;22.10;99.90;;;;;;5074332;28;20282;-85
2023/07/19 13:47:49;;;;;;;;;;;22.10;99.90;;;;;;5092941;28;19924;-85
2023/07/19 13:50:14;;;;;;;;;;;22.00;99.90;;;;;;5074934;28;20395;-84
2023/07/19 13:52:40;;;;;;;;;;;22.00;99.90;;;;;;5091015;28;20282;-84
2023/07/19 13:55:06;;;;;;;;;;;21.90;99.90;;;;;;5087234;28;19931;-85
2023/07/19 13:57:32;;;;;;;;;;;22.00;99.90;;;;;;5065573;28;20019;-84
2023/07/19 13:59:57;;;;;;;;;;;22.00;99.90;;;;;;5074982;28;20015;-85
2023/07/19 14:02:23;;;;;;;;;;;22.10;99.90;;;;;;5092735;28;19924;-86
2023/07/19 14:04:49;;;;;;;;;;;22.20;99.90;;;;;;5091194;28;19930;-85
2023/07/19 14:07:14;;;;;;;;;;;22.30;99.90;;;;;;5078234;28;19982;-84
2023/07/19 14:09:40;;;;;;;;;;;22.30;99.90;;;;;;5092444;28;19947;-84